createdAt,value
2018-11-28T00:00:41.003Z,4.28
2018-11-28T00:03:10.282Z,4.15
2018-11-28T00:05:39.543Z,4.32
2018-11-28T00:13:28.476Z,4.25
2018-11-28T00:15:58.839Z,4.04
2018-11-28T00:18:28.592Z,3.86
2018-11-28T00:20:57.917Z,3.74
2018-11-28T00:23:27.215Z,3.66
2018-11-28T00:25:58.822Z,3.67
2018-11-28T00:28:25.745Z,3.83
2018-11-28T00:30:55.098Z,4.07
2018-11-28T00:33:24.518Z,4.24
2018-11-28T00:35:53.760Z,4.34
2018-11-28T00:38:23.026Z,4.34
2018-11-28T00:40:52.281Z,4.16
2018-11-28T00:43:21.519Z,4.40
2018-11-28T00:45:50.737Z,4.41
2018-11-28T00:48:19.979Z,4.49
2018-11-28T00:50:49.286Z,4.59
2018-11-28T00:53:19.418Z,4.58
2018-11-28T00:55:48.621Z,4.46
2018-11-28T00:58:18.007Z,4.50
2018-11-28T01:00:47.595Z,4.49
2018-11-28T01:03:17.385Z,4.25
2018-11-28T01:05:46.601Z,4.11
2018-11-28T01:08:16.344Z,4.20
2018-11-28T01:10:45.622Z,4.34
2018-11-28T01:13:15.319Z,4.37
2018-11-28T01:15:44.728Z,4.46
2018-11-28T01:18:14.637Z,4.20
2018-11-28T01:20:43.858Z,4.17
2018-11-28T01:23:14.081Z,4.21
2018-11-28T01:25:43.268Z,4.21
2018-11-28T01:28:12.624Z,4.27
2018-11-28T01:30:41.857Z,4.13
2018-11-28T01:33:11.107Z,4.18
2018-11-28T01:35:40.318Z,4.09
2018-11-28T01:38:09.553Z,3.92
2018-11-28T01:40:38.796Z,3.91
2018-11-28T01:43:08.057Z,4.13
2018-11-28T01:45:37.367Z,4.08
2018-11-28T01:48:06.670Z,4.06
2018-11-28T01:50:36.858Z,4.09
2018-11-28T01:53:06.136Z,4.11
2018-11-28T01:55:35.358Z,3.82
2018-11-28T01:58:04.631Z,3.51
2018-11-28T02:00:33.900Z,3.52
2018-11-28T02:03:03.523Z,3.51
2018-11-28T02:05:32.751Z,3.49
2018-11-28T02:08:02.037Z,3.48
2018-11-28T02:10:31.282Z,3.35
2018-11-28T02:13:00.523Z,3.36
2018-11-28T02:15:29.754Z,3.26
2018-11-28T02:17:58.993Z,3.22
2018-11-28T02:20:29.114Z,3.19
2018-11-28T02:22:58.379Z,3.01
2018-11-28T02:25:27.557Z,2.81
2018-11-28T02:27:56.765Z,2.76
2018-11-28T02:30:26.233Z,2.76
2018-11-28T02:32:55.502Z,2.80
2018-11-28T02:35:24.749Z,2.83
2018-11-28T02:37:54.026Z,2.86
2018-11-28T02:40:23.281Z,2.78
2018-11-28T02:42:52.532Z,2.73
2018-11-28T02:45:22.509Z,2.74
2018-11-28T02:47:52.482Z,2.71
2018-11-28T02:50:21.872Z,2.83
2018-11-28T02:52:51.170Z,2.70
2018-11-28T02:55:20.403Z,2.67
2018-11-28T02:57:50.286Z,2.61
2018-11-28T03:00:26.384Z,2.60
2018-11-28T03:02:55.656Z,2.77
2018-11-28T03:05:24.877Z,2.75
2018-11-28T03:07:54.101Z,2.77
2018-11-28T03:10:23.622Z,2.74
2018-11-28T03:12:52.880Z,2.69
2018-11-28T03:15:30.507Z,2.77
2018-11-28T03:17:59.737Z,2.76
2018-11-28T03:20:28.963Z,2.88
2018-11-28T03:22:58.216Z,2.78
2018-11-28T03:25:27.426Z,2.74
2018-11-28T03:27:56.688Z,2.64
2018-11-28T03:30:25.956Z,2.69
2018-11-28T03:32:55.277Z,2.63
2018-11-28T03:35:24.552Z,2.54
2018-11-28T03:37:53.767Z,2.52
2018-11-28T03:40:22.983Z,2.44
2018-11-28T03:42:52.281Z,2.40
2018-11-28T03:45:21.487Z,2.39
2018-11-28T03:47:50.713Z,2.35
2018-11-28T03:50:19.970Z,2.35
2018-11-28T03:52:49.249Z,2.35
2018-11-28T03:55:18.792Z,2.38
2018-11-28T03:57:48.372Z,2.35
2018-11-28T04:00:20.304Z,2.33
2018-11-28T04:02:50.021Z,2.33
2018-11-28T04:05:19.914Z,2.34
2018-11-28T04:07:49.139Z,2.29
2018-11-28T04:10:19.168Z,2.30
2018-11-28T04:12:48.398Z,2.29
2018-11-28T04:15:19.899Z,2.41
2018-11-28T04:17:49.278Z,2.38
2018-11-28T04:20:20.448Z,2.41
2018-11-28T04:22:49.770Z,2.49
2018-11-28T04:25:22.718Z,2.52
2018-11-28T04:27:52.383Z,2.58
2018-11-28T04:30:24.298Z,2.50
2018-11-28T04:32:54.507Z,2.48
2018-11-28T04:35:24.753Z,2.45
2018-11-28T04:37:54.016Z,2.24
2018-11-28T04:40:23.260Z,2.19
2018-11-28T04:42:52.773Z,2.15
2018-11-28T04:45:24.690Z,2.08
2018-11-28T04:47:54.898Z,2.06
2018-11-28T04:50:24.209Z,2.01
2018-11-28T04:52:53.406Z,2.01
2018-11-28T04:55:22.724Z,2.00
2018-11-28T04:57:52.027Z,1.97
2018-11-28T05:00:27.972Z,1.96
2018-11-28T05:02:58.017Z,1.95
2018-11-28T05:05:27.267Z,1.98
2018-11-28T05:07:56.501Z,1.98
2018-11-28T05:10:27.887Z,1.96
2018-11-28T05:12:57.744Z,1.99
2018-11-28T05:15:28.081Z,2.05
2018-11-28T05:17:57.846Z,2.09
2018-11-28T05:20:35.595Z,2.14
2018-11-28T05:23:05.853Z,2.14
2018-11-28T05:25:35.665Z,2.18
2018-11-28T05:28:05.134Z,2.32
2018-11-28T05:30:35.601Z,2.25
2018-11-28T05:33:04.044Z,2.39
2018-11-28T05:35:40.569Z,2.39
2018-11-28T05:38:14.235Z,2.24
2018-11-28T05:40:44.141Z,2.23
2018-11-28T05:43:13.973Z,2.13
2018-11-28T05:45:43.306Z,2.11
2018-11-28T05:48:12.963Z,2.05
2018-11-28T05:50:42.417Z,2.03
2018-11-28T05:53:12.075Z,1.91
2018-11-28T05:55:41.344Z,1.97
2018-11-28T05:58:10.538Z,1.94
2018-11-28T06:00:40.578Z,1.91
2018-11-28T06:03:10.777Z,2.00
2018-11-28T06:05:42.011Z,2.07
2018-11-28T06:08:11.285Z,2.06
2018-11-28T06:10:40.513Z,2.12
2018-11-28T06:13:09.733Z,2.06
2018-11-28T06:15:38.998Z,2.08
2018-11-28T06:18:09.185Z,2.03
2018-11-28T06:20:38.430Z,2.07
2018-11-28T06:23:07.952Z,2.00
2018-11-28T06:25:37.237Z,1.80
2018-11-28T06:28:06.656Z,1.92
2018-11-28T06:30:36.140Z,1.98
2018-11-28T06:33:05.510Z,2.11
2018-11-28T06:35:34.833Z,2.11
2018-11-28T06:38:04.145Z,2.08
2018-11-28T06:40:33.380Z,2.18
2018-11-28T06:43:02.658Z,2.32
2018-11-28T06:45:31.974Z,2.30
2018-11-28T06:48:01.176Z,2.35
2018-11-28T06:50:30.389Z,2.52
2018-11-28T06:52:59.770Z,2.64
2018-11-28T06:55:28.983Z,2.61
2018-11-28T06:57:58.317Z,2.52
2018-11-28T07:00:27.586Z,2.43
2018-11-28T07:02:57.069Z,2.28
2018-11-28T07:05:26.285Z,2.15
2018-11-28T07:07:55.504Z,2.12
2018-11-28T07:10:24.736Z,2.19
2018-11-28T07:12:54.004Z,2.23
2018-11-28T07:15:24.299Z,2.20
2018-11-28T07:17:53.633Z,2.30
2018-11-28T07:20:22.949Z,2.23
2018-11-28T07:22:52.190Z,2.19
2018-11-28T07:25:21.486Z,2.21
2018-11-28T07:27:50.777Z,2.29
2018-11-28T07:30:22.767Z,2.37
2018-11-28T07:32:54.521Z,2.28
2018-11-28T07:35:23.902Z,2.36
2018-11-28T07:37:53.111Z,2.32
2018-11-28T07:40:23.522Z,2.33
2018-11-28T07:43:00.918Z,2.27
2018-11-28T07:45:30.195Z,2.52
2018-11-28T07:47:59.408Z,2.42
2018-11-28T07:50:28.710Z,2.84
2018-11-28T07:52:57.913Z,2.57
2018-11-28T07:55:27.176Z,2.46
2018-11-28T07:57:56.445Z,2.39
2018-11-28T08:00:25.747Z,2.54
2018-11-28T08:02:55.576Z,2.73
2018-11-28T08:05:25.004Z,2.91
2018-11-28T08:07:54.232Z,3.01
2018-11-28T08:10:26.963Z,3.11
2018-11-28T08:12:57.162Z,3.24
2018-11-28T08:15:35.360Z,2.98
2018-11-28T08:18:04.646Z,2.80
2018-11-28T08:20:34.213Z,2.75
2018-11-28T08:23:03.475Z,2.69
2018-11-28T08:25:32.871Z,2.58
2018-11-28T08:28:02.805Z,2.67
2018-11-28T08:30:32.189Z,2.67
2018-11-28T08:33:01.502Z,2.65
2018-11-28T08:35:36.882Z,2.61
2018-11-28T08:38:09.738Z,2.79
2018-11-28T08:40:41.117Z,2.68
2018-11-28T08:43:12.383Z,2.76
2018-11-28T08:45:42.118Z,2.70
2018-11-28T08:48:15.947Z,2.80
2018-11-28T08:50:45.587Z,2.69
2018-11-28T08:53:15.081Z,2.74
2018-11-28T08:55:44.322Z,2.86
2018-11-28T08:58:13.573Z,2.91
2018-11-28T09:00:42.884Z,3.09
2018-11-28T09:03:12.192Z,3.04
2018-11-28T09:05:41.560Z,3.07
2018-11-28T09:08:10.879Z,3.13
2018-11-28T09:10:40.098Z,3.17
2018-11-28T09:13:09.680Z,3.25
2018-11-28T09:15:38.888Z,3.25
2018-11-28T09:18:08.481Z,3.03
2018-11-28T09:20:37.706Z,3.30
2018-11-28T09:23:07.465Z,3.43
2018-11-28T09:25:36.751Z,3.51
2018-11-28T09:28:06.550Z,3.56
2018-11-28T09:30:35.990Z,3.38
2018-11-28T09:33:09.011Z,3.37
2018-11-28T09:35:40.501Z,3.35
2018-11-28T09:38:10.129Z,3.46
2018-11-28T09:40:39.368Z,3.51
2018-11-28T09:43:09.093Z,3.50
2018-11-28T09:45:38.301Z,3.54
2018-11-28T09:48:07.920Z,3.81
2018-11-28T09:50:37.223Z,3.84
2018-11-28T09:53:06.750Z,3.67
2018-11-28T09:55:35.981Z,3.89
2018-11-28T09:58:05.421Z,3.85
2018-11-28T10:00:34.738Z,4.09
2018-11-28T10:03:04.067Z,4.11
2018-11-28T10:05:34.287Z,4.23
2018-11-28T10:08:04.963Z,4.18
2018-11-28T10:10:34.207Z,4.01
2018-11-28T10:13:03.795Z,3.80
2018-11-28T10:15:35.723Z,3.68
2018-11-28T10:18:02.329Z,3.79
2018-11-28T10:20:32.764Z,3.71
2018-11-28T10:23:02.037Z,3.95
2018-11-28T10:25:31.297Z,4.16
2018-11-28T10:28:06.306Z,4.29
2018-11-28T10:30:37.621Z,4.46
2018-11-28T10:33:09.449Z,4.29
2018-11-28T10:35:39.396Z,4.10
2018-11-28T10:38:09.185Z,4.16
2018-11-28T10:40:38.632Z,4.11
2018-11-28T10:43:09.458Z,4.29
2018-11-28T10:45:38.895Z,4.69
2018-11-28T10:48:10.383Z,4.41
2018-11-28T10:50:39.726Z,4.90
2018-11-28T10:53:09.219Z,4.68
2018-11-28T10:55:38.529Z,4.31
2018-11-28T10:58:08.668Z,4.30
2018-11-28T11:00:44.504Z,4.43
2018-11-28T11:03:19.960Z,4.25
2018-11-28T11:05:55.357Z,4.27
2018-11-28T11:08:31.901Z,4.46
2018-11-28T11:11:08.418Z,4.27
2018-11-28T11:13:42.382Z,4.48
2018-11-28T11:16:11.693Z,4.47
2018-11-28T11:18:41.084Z,4.43
2018-11-28T11:21:10.850Z,4.40
2018-11-28T11:23:40.167Z,4.34
2018-11-28T11:26:13.005Z,4.33
2018-11-28T11:28:42.336Z,4.41
2018-11-28T11:31:11.890Z,4.53
2018-11-28T11:33:41.422Z,4.50
2018-11-28T11:36:10.789Z,4.53
2018-11-28T11:38:40.064Z,4.59
2018-11-28T11:41:12.475Z,4.40
2018-11-28T11:43:41.731Z,4.51
2018-11-28T11:46:11.019Z,4.62
2018-11-28T11:48:40.322Z,4.70
2018-11-28T11:51:10.166Z,4.75
2018-11-28T11:53:39.427Z,4.73
2018-11-28T11:56:09.039Z,4.79
2018-11-28T11:58:38.283Z,4.77
2018-11-28T12:01:07.912Z,4.62
2018-11-28T12:03:37.171Z,4.87
2018-11-28T12:06:06.448Z,5.23
2018-11-28T12:08:35.713Z,5.18
2018-11-28T12:11:05.090Z,5.10
2018-11-28T12:13:34.389Z,4.91
2018-11-28T12:16:03.988Z,5.02
2018-11-28T12:18:33.111Z,4.89
2018-11-28T12:21:05.386Z,4.97
2018-11-28T12:23:34.799Z,4.76
2018-11-28T12:26:04.084Z,4.77
2018-11-28T12:28:33.395Z,5.04
2018-11-28T12:31:02.618Z,4.96
2018-11-28T12:33:31.888Z,4.93
2018-11-28T12:36:01.249Z,4.96
2018-11-28T12:38:30.546Z,5.08
2018-11-28T12:40:59.889Z,5.36
2018-11-28T12:43:29.715Z,5.23
2018-11-28T12:45:58.481Z,5.23
2018-11-28T12:48:27.781Z,5.44
2018-11-28T12:50:57.086Z,5.37
2018-11-28T12:53:26.341Z,5.33
2018-11-28T12:55:55.644Z,5.06
2018-11-28T12:58:24.864Z,5.02
2018-11-28T13:00:54.180Z,5.04
2018-11-28T13:03:23.442Z,5.05
2018-11-28T13:05:52.689Z,5.27
2018-11-28T13:08:22.010Z,5.15
2018-11-28T13:10:51.284Z,5.18
2018-11-28T13:13:20.446Z,5.00
2018-11-28T13:15:49.678Z,5.20
2018-11-28T13:18:18.878Z,5.08
2018-11-28T13:20:48.068Z,5.12
2018-11-28T13:23:17.294Z,5.16
2018-11-28T13:25:46.530Z,5.11
2018-11-28T13:28:15.789Z,5.16
2018-11-28T13:30:45.037Z,5.20
2018-11-28T13:33:14.238Z,5.21
2018-11-28T13:35:43.530Z,5.20
2018-11-28T13:38:13.379Z,5.28
2018-11-28T13:40:43.367Z,5.25
2018-11-28T13:43:12.663Z,5.29
2018-11-28T13:45:44.989Z,5.29
2018-11-28T13:48:14.758Z,5.14
2018-11-28T13:50:44.044Z,5.23
2018-11-28T13:53:14.910Z,5.22
2018-11-28T13:58:28.702Z,5.23
2018-11-28T14:00:58.034Z,5.34
2018-11-28T14:03:27.328Z,5.20
2018-11-28T14:05:56.635Z,5.36
2018-11-28T14:08:25.843Z,5.30
2018-11-28T14:10:55.163Z,5.44
2018-11-28T14:13:24.419Z,5.50
2018-11-28T14:15:53.694Z,5.54
2018-11-28T14:18:23.169Z,5.40
2018-11-28T14:20:52.506Z,5.39
2018-11-28T14:23:21.793Z,5.40
2018-11-28T14:25:51.160Z,5.36
2018-11-28T14:28:20.474Z,5.44
2018-11-28T14:30:50.024Z,5.35
2018-11-28T14:33:19.338Z,5.45
2018-11-28T14:35:48.572Z,5.58
2018-11-28T14:38:17.862Z,5.47
2018-11-28T14:40:47.091Z,5.41
2018-11-28T14:43:16.401Z,5.40
2018-11-28T14:45:45.620Z,5.44
2018-11-28T14:48:14.898Z,5.45
2018-11-28T14:50:48.393Z,5.48
2018-11-28T14:53:17.949Z,5.45
2018-11-28T14:55:47.241Z,5.42
2018-11-28T14:58:16.528Z,5.38
2018-11-28T15:00:46.184Z,5.43
2018-11-28T15:03:19.717Z,5.43
2018-11-28T15:05:56.762Z,5.42
2018-11-28T15:08:26.254Z,5.38
2018-11-28T15:11:01.565Z,5.39
2018-11-28T15:13:30.913Z,5.39
2018-11-28T15:16:00.966Z,5.45
2018-11-28T15:18:30.315Z,5.41
2018-11-28T15:20:59.866Z,5.49
2018-11-28T15:23:29.187Z,5.41
2018-11-28T15:25:58.586Z,5.38
2018-11-28T15:28:27.853Z,5.32
2018-11-28T15:30:57.222Z,5.28
2018-11-28T15:33:26.591Z,5.29
2018-11-28T15:35:55.937Z,5.29
2018-11-28T15:38:26.281Z,5.32
2018-11-28T15:40:54.557Z,5.31
2018-11-28T15:43:23.873Z,5.27
2018-11-28T15:45:53.265Z,5.26
2018-11-28T15:48:22.526Z,5.25
2018-11-28T15:50:51.899Z,5.22
2018-11-28T15:53:21.176Z,5.23
2018-11-28T15:55:50.869Z,5.26
2018-11-28T15:58:20.202Z,5.30
2018-11-28T16:00:49.727Z,5.32
2018-11-28T16:03:19.142Z,5.30
2018-11-28T16:05:48.381Z,5.29
2018-11-28T16:08:17.749Z,5.34
2018-11-28T16:10:47.085Z,5.27
2018-11-28T16:13:17.893Z,5.34
2018-11-28T16:15:49.735Z,5.38
2018-11-28T16:18:19.123Z,5.43
2018-11-28T16:20:48.409Z,5.39
2018-11-28T16:23:17.716Z,5.37
2018-11-28T16:25:47.188Z,5.33
2018-11-28T16:28:16.860Z,5.32
2018-11-28T16:30:46.267Z,5.33
2018-11-28T16:33:16.037Z,5.34
2018-11-28T16:35:45.348Z,5.39
2018-11-28T16:38:15.449Z,5.50
2018-11-28T16:40:44.963Z,5.45
2018-11-28T16:43:14.662Z,5.45
2018-11-28T16:45:43.990Z,5.52
2018-11-28T16:48:13.247Z,5.48
2018-11-28T16:50:42.530Z,5.44
2018-11-28T16:53:11.977Z,5.41
2018-11-28T16:55:41.209Z,5.41
2018-11-28T16:58:10.913Z,5.46
2018-11-28T17:00:43.141Z,5.39
2018-11-28T17:03:14.230Z,5.38
2018-11-28T17:05:44.068Z,5.37
2018-11-28T17:08:13.917Z,5.36
2018-11-28T17:10:43.353Z,5.43
2018-11-28T17:13:13.512Z,5.45
2018-11-28T17:15:44.876Z,5.46
2018-11-28T17:18:15.032Z,5.45
2018-11-28T17:20:44.260Z,5.49
2018-11-28T17:23:13.569Z,5.47
2018-11-28T17:25:43.111Z,5.53
2018-11-28T17:28:12.370Z,5.42
2018-11-28T17:30:41.715Z,5.47
2018-11-28T17:33:10.915Z,5.40
2018-11-28T17:35:41.269Z,5.42
2018-11-28T17:38:10.574Z,5.46
2018-11-28T17:40:39.840Z,5.47
2018-11-28T17:43:09.061Z,5.38
2018-11-28T17:45:38.334Z,5.36
2018-11-28T17:48:07.785Z,5.40
2018-11-28T17:50:37.170Z,5.48
2018-11-28T17:53:11.955Z,5.47
2018-11-28T17:55:47.578Z,5.48
2018-11-28T17:58:17.355Z,5.45
2018-11-28T18:00:46.804Z,5.44
2018-11-28T18:03:17.108Z,5.39
2018-11-28T18:05:47.152Z,5.38
2018-11-28T18:08:16.527Z,5.36
2018-11-28T18:10:45.893Z,5.33
2018-11-28T18:13:17.448Z,5.45
2018-11-28T18:15:48.991Z,5.39
2018-11-28T18:18:19.702Z,5.41
2018-11-28T18:20:50.290Z,5.46
2018-11-28T18:23:18.606Z,5.46
2018-11-28T18:25:48.266Z,5.56
2018-11-28T18:28:18.126Z,5.49
2018-11-28T18:30:47.402Z,5.53
2018-11-28T18:33:17.180Z,5.50
2018-11-28T18:35:46.421Z,5.44
2018-11-28T18:38:15.898Z,5.39
2018-11-28T18:40:45.197Z,5.41
2018-11-28T18:43:14.952Z,5.37
2018-11-28T18:45:46.285Z,5.41
2018-11-28T18:48:15.489Z,5.45
2018-11-28T18:50:44.743Z,5.38
2018-11-28T18:53:14.524Z,5.42
2018-11-28T18:55:43.812Z,5.39
2018-11-28T18:58:13.876Z,5.41
2018-11-28T19:00:44.248Z,5.48
2018-11-28T19:03:13.962Z,5.46
2018-11-28T19:05:43.257Z,5.46
2018-11-28T19:08:12.530Z,5.43
2018-11-28T19:10:41.832Z,5.42
2018-11-28T19:13:11.067Z,5.39
2018-11-28T19:15:40.381Z,5.37
2018-11-28T19:18:09.601Z,5.32
2018-11-28T19:20:39.022Z,5.29
2018-11-28T19:23:08.285Z,5.28
2018-11-28T19:25:37.514Z,5.22
2018-11-28T19:28:06.780Z,5.21
2018-11-28T19:30:38.167Z,5.18
2018-11-28T19:33:08.828Z,5.12
2018-11-28T19:35:38.366Z,5.12
2018-11-28T19:38:09.210Z,5.08
2018-11-28T19:40:46.722Z,5.11
2018-11-28T19:43:16.176Z,5.10
2018-11-28T19:45:45.408Z,5.13
2018-11-28T19:48:15.282Z,5.18
2018-11-28T19:50:45.550Z,5.10
2018-11-28T19:53:15.536Z,5.06
2018-11-28T19:55:44.890Z,5.07
2018-11-28T19:58:14.626Z,5.18
2018-11-28T20:00:45.127Z,5.17
2018-11-28T20:03:14.809Z,5.14
2018-11-28T20:05:44.203Z,5.02
2018-11-28T20:08:14.084Z,5.05
2018-11-28T20:10:43.357Z,5.04
2018-11-28T20:13:12.993Z,5.01
2018-11-28T20:15:45.333Z,4.96
2018-11-28T20:18:15.272Z,4.83
2018-11-28T20:20:44.587Z,4.83
2018-11-28T20:23:14.525Z,4.73
2018-11-28T20:25:43.949Z,4.61
2018-11-28T20:28:13.772Z,4.57
2018-11-28T20:30:45.042Z,4.48
2018-11-28T20:33:16.500Z,4.48
2018-11-28T20:35:47.021Z,4.38
2018-11-28T20:38:20.761Z,4.34
2018-11-28T20:40:50.434Z,4.42
2018-11-28T20:43:20.586Z,4.34
2018-11-28T20:45:49.808Z,4.30
2018-11-28T20:48:19.110Z,4.30
2018-11-28T20:50:48.614Z,4.24
2018-11-28T20:53:19.044Z,4.21
2018-11-28T20:55:48.342Z,4.17
2018-11-28T20:58:17.917Z,4.20
2018-11-28T21:00:47.695Z,4.18
2018-11-28T21:03:17.487Z,4.13
2018-11-28T21:05:46.854Z,4.20
2018-11-28T21:08:17.693Z,4.27
2018-11-28T21:10:47.003Z,4.16
2018-11-28T21:13:16.428Z,4.26
2018-11-28T21:15:46.278Z,4.28
2018-11-28T21:18:15.995Z,4.26
2018-11-28T21:20:46.103Z,4.10
2018-11-28T21:23:17.190Z,4.06
2018-11-28T21:25:46.703Z,4.09
2018-11-28T21:28:16.294Z,3.97
2018-11-28T21:30:45.613Z,3.97
2018-11-28T21:33:15.718Z,3.92
2018-11-28T21:35:49.409Z,3.92
2018-11-28T21:38:18.869Z,3.97
2018-11-28T21:40:52.291Z,4.05
2018-11-28T21:43:21.597Z,3.94
2018-11-28T21:45:50.983Z,3.82
2018-11-28T21:48:20.994Z,3.85
2018-11-28T21:50:50.270Z,3.74
2018-11-28T21:53:19.545Z,3.77
2018-11-28T21:55:48.827Z,3.70
2018-11-28T21:58:18.092Z,3.69
2018-11-28T22:00:47.392Z,3.80
2018-11-28T22:03:18.158Z,3.75
2018-11-28T22:05:48.889Z,3.62
2018-11-28T22:08:18.207Z,3.60
2018-11-28T22:10:49.163Z,3.55
2018-11-28T22:13:20.245Z,3.51
2018-11-28T22:15:49.613Z,3.58
2018-11-28T22:18:21.908Z,3.41
2018-11-28T22:20:51.184Z,3.45
2018-11-28T22:23:21.011Z,3.40
2018-11-28T22:25:50.297Z,3.40
2018-11-28T22:28:24.921Z,3.40
2018-11-28T22:30:54.130Z,3.27
2018-11-28T22:33:23.396Z,3.28
2018-11-28T22:35:52.655Z,3.33
2018-11-28T22:38:21.893Z,3.53
2018-11-28T22:40:51.107Z,3.65
2018-11-28T22:43:20.511Z,3.58
2018-11-28T22:45:49.747Z,3.38
2018-11-28T22:48:19.226Z,3.35
2018-11-28T22:50:48.494Z,3.31
2018-11-28T22:53:17.704Z,3.29
2018-11-28T22:55:46.955Z,3.28
2018-11-28T22:58:16.949Z,3.26
2018-11-28T23:00:51.365Z,3.36
2018-11-28T23:03:20.710Z,3.21
2018-11-28T23:05:51.018Z,3.10
2018-11-28T23:08:21.144Z,3.11
2018-11-28T23:10:51.415Z,3.06
2018-11-28T23:13:23.807Z,3.12
2018-11-28T23:15:53.107Z,3.12
2018-11-28T23:18:22.384Z,3.10
2018-11-28T23:20:51.660Z,3.13
2018-11-28T23:23:20.951Z,3.07
2018-11-28T23:25:50.250Z,2.97
2018-11-28T23:28:19.511Z,3.00
2018-11-28T23:30:48.739Z,2.97
2018-11-28T23:33:18.088Z,3.02
2018-11-28T23:35:47.641Z,3.39
2018-11-28T23:38:18.711Z,3.05
2018-11-28T23:40:48.085Z,3.11
2018-11-28T23:43:17.490Z,3.08
2018-11-28T23:45:46.854Z,2.89
2018-11-28T23:48:16.244Z,2.94
2018-11-28T23:50:45.463Z,3.01
2018-11-28T23:53:16.054Z,2.90
2018-11-28T23:55:45.313Z,2.88
2018-11-28T23:58:15.566Z,2.89
